createdAt,value
2023-02-15T00:02:57.119Z,252.50
2023-02-15T00:06:04.423Z,239.20
2023-02-15T00:09:11.448Z,251.00
2023-02-15T00:12:19.477Z,254.10
2023-02-15T00:15:27.015Z,276.60
2023-02-15T00:18:34.382Z,277.20
2023-02-15T00:21:42.071Z,273.10
2023-02-15T00:24:49.165Z,251.20
2023-02-15T00:27:56.949Z,255.50
2023-02-15T00:31:04.692Z,247.60
2023-02-15T00:34:12.020Z,256.50
2023-02-15T00:37:20.070Z,248.60
2023-02-15T00:40:28.120Z,267.60
2023-02-15T00:43:35.349Z,230.50
2023-02-15T00:46:43.415Z,259.40
2023-02-15T00:49:51.124Z,223.40
2023-02-15T00:52:58.811Z,247.40
2023-02-15T00:56:06.582Z,238.00
2023-02-15T00:59:13.933Z,236.20
2023-02-15T01:02:21.197Z,247.20
2023-02-15T01:05:28.845Z,248.20
2023-02-15T01:08:36.065Z,231.80
2023-02-15T01:11:43.730Z,250.80
2023-02-15T01:14:51.281Z,229.30
2023-02-15T01:17:58.515Z,251.20
2023-02-15T01:21:05.981Z,253.80
2023-02-15T01:24:13.431Z,276.20
2023-02-15T01:27:21.106Z,243.80
2023-02-15T01:30:28.651Z,234.40
2023-02-15T01:33:35.942Z,243.70
2023-02-15T01:36:43.391Z,265.00
2023-02-15T01:39:50.571Z,256.60
2023-02-15T01:42:57.902Z,254.70
2023-02-15T01:46:05.859Z,274.80
2023-02-15T01:49:13.077Z,208.60
2023-02-15T01:52:20.350Z,241.80
2023-02-15T01:55:28.169Z,258.30
2023-02-15T01:58:35.393Z,220.40
2023-02-15T02:01:42.678Z,202.00
2023-02-15T02:04:50.138Z,214.70
2023-02-15T02:07:57.700Z,198.00
2023-02-15T02:11:04.965Z,192.40
2023-02-15T02:14:12.357Z,204.10
2023-02-15T02:17:20.135Z,225.00
2023-02-15T02:20:27.062Z,215.60
2023-02-15T02:23:34.622Z,193.40
2023-02-15T02:26:41.839Z,185.60
2023-02-15T02:29:49.101Z,216.10
2023-02-15T02:32:56.865Z,202.30
2023-02-15T02:36:04.383Z,212.30
2023-02-15T02:39:11.745Z,212.60
2023-02-15T02:42:19.066Z,230.30
2023-02-15T02:45:26.402Z,210.00
2023-02-15T02:48:33.834Z,220.30
2023-02-15T02:51:41.379Z,223.80
2023-02-15T02:54:48.980Z,189.40
2023-02-15T02:57:56.454Z,217.50
2023-02-15T03:01:03.526Z,212.60
2023-02-15T03:04:11.056Z,210.50
2023-02-15T03:07:18.024Z,250.40
2023-02-15T03:10:25.624Z,232.80
2023-02-15T03:13:33.295Z,229.90
2023-02-15T03:16:40.323Z,228.00
2023-02-15T03:19:48.008Z,226.60
2023-02-15T03:22:55.290Z,224.70
2023-02-15T03:26:02.988Z,237.00
2023-02-15T03:29:10.530Z,243.10
2023-02-15T03:32:18.575Z,210.60
2023-02-15T03:35:26.200Z,196.50
2023-02-15T03:38:33.476Z,217.60
2023-02-15T03:41:41.111Z,197.90
2023-02-15T03:44:48.474Z,189.60
2023-02-15T03:47:55.945Z,195.20
2023-02-15T03:51:03.571Z,223.20
2023-02-15T03:54:10.544Z,191.30
2023-02-15T03:57:18.124Z,206.40
2023-02-15T04:00:25.594Z,196.00
2023-02-15T04:03:32.533Z,193.30
2023-02-15T04:06:39.703Z,222.40
2023-02-15T04:09:46.769Z,211.50
2023-02-15T04:12:54.321Z,212.40
2023-02-15T04:16:02.292Z,226.40
2023-02-15T04:19:09.479Z,231.70
2023-02-15T04:22:17.330Z,199.90
2023-02-15T04:25:24.910Z,230.60
2023-02-15T04:28:32.201Z,186.50
2023-02-15T04:31:39.683Z,194.40
2023-02-15T04:34:47.318Z,217.40
2023-02-15T04:37:54.333Z,209.50
2023-02-15T04:41:01.539Z,220.80
2023-02-15T04:44:09.164Z,209.30
2023-02-15T04:47:16.108Z,195.80
2023-02-15T04:50:23.913Z,173.10
2023-02-15T04:53:31.476Z,187.80
2023-02-15T04:56:38.656Z,197.60
2023-02-15T04:59:46.294Z,183.10
2023-02-15T05:02:53.960Z,240.20
2023-02-15T05:06:01.391Z,197.00
2023-02-15T05:09:09.304Z,174.70
2023-02-15T05:12:16.749Z,147.40
2023-02-15T05:15:24.032Z,139.40
2023-02-15T05:18:31.607Z,128.40
2023-02-15T05:21:38.925Z,121.60
2023-02-15T05:24:46.154Z,130.20
2023-02-15T05:27:53.434Z,140.20
2023-02-15T05:31:01.330Z,128.00
2023-02-15T05:34:08.668Z,120.60
2023-02-15T05:37:15.878Z,118.20
2023-02-15T05:40:23.619Z,118.80
2023-02-15T05:43:30.512Z,120.40
2023-02-15T05:46:37.883Z,113.60
2023-02-15T05:49:45.591Z,103.40
2023-02-15T05:52:52.713Z,92.20
2023-02-15T05:56:01.516Z,78.10
2023-02-15T05:59:09.134Z,74.00
2023-02-15T06:02:16.581Z,67.70
2023-02-15T06:05:24.237Z,65.40
2023-02-15T06:08:31.753Z,61.90
2023-02-15T06:11:39.055Z,65.20
2023-02-15T06:14:46.490Z,65.70
2023-02-15T06:17:54.237Z,67.60
2023-02-15T06:21:01.577Z,61.40
2023-02-15T06:24:08.926Z,62.30
2023-02-15T06:27:16.568Z,63.50
2023-02-15T06:30:24.187Z,57.70
2023-02-15T06:33:32.100Z,60.80
2023-02-15T06:36:40.125Z,57.10
2023-02-15T06:39:47.759Z,56.20
2023-02-15T06:42:55.458Z,50.40
2023-02-15T06:46:03.372Z,59.20
2023-02-15T06:49:10.771Z,52.10
2023-02-15T06:52:18.646Z,49.60
2023-02-15T06:55:26.243Z,54.30
2023-02-15T06:58:33.742Z,55.00
2023-02-15T07:01:41.767Z,55.20
2023-02-15T07:04:49.647Z,54.60
2023-02-15T07:07:56.798Z,51.00
2023-02-15T07:11:04.782Z,55.60
2023-02-15T07:14:12.113Z,56.70
2023-02-15T07:17:36.541Z,58.70
2023-02-15T07:20:25.867Z,53.20
2023-02-15T07:23:33.159Z,62.90
2023-02-15T07:26:41.454Z,67.80
2023-02-15T07:29:49.119Z,68.80
2023-02-15T07:32:56.768Z,66.50
2023-02-15T07:36:04.915Z,70.10
2023-02-15T07:39:12.961Z,74.30
2023-02-15T07:42:20.186Z,75.50
2023-02-15T07:45:28.347Z,78.00
2023-02-15T07:48:35.887Z,82.50
2023-02-15T07:51:43.802Z,92.30
2023-02-15T07:54:51.362Z,82.50
2023-02-15T07:57:58.951Z,90.70
2023-02-15T08:01:06.813Z,92.10
2023-02-15T08:04:14.393Z,85.40
2023-02-15T08:07:21.813Z,85.50
2023-02-15T08:10:29.437Z,91.30
2023-02-15T08:13:36.636Z,84.90
2023-02-15T08:16:44.593Z,86.60
2023-02-15T08:19:52.443Z,96.40
2023-02-15T08:23:00.056Z,102.40
2023-02-15T08:26:08.045Z,100.70
2023-02-15T08:29:15.512Z,103.40
2023-02-15T08:32:23.163Z,94.50
2023-02-15T08:35:30.849Z,110.10
2023-02-15T08:38:38.092Z,121.40
2023-02-15T08:41:46.294Z,107.00
2023-02-15T08:44:54.185Z,127.60
2023-02-15T08:48:01.285Z,117.70
2023-02-15T08:51:09.570Z,108.40
2023-02-15T08:54:17.759Z,107.60
2023-02-15T08:57:24.867Z,109.50
2023-02-15T09:00:32.684Z,114.60
2023-02-15T09:03:39.933Z,106.80
2023-02-15T09:06:49.025Z,119.20
2023-02-15T09:09:57.159Z,103.50
2023-02-15T09:13:04.497Z,107.60
2023-02-15T09:16:12.482Z,97.90
2023-02-15T09:19:20.563Z,107.00
2023-02-15T09:22:28.182Z,93.10
2023-02-15T09:25:35.757Z,91.50
2023-02-15T09:28:43.478Z,69.00
2023-02-15T09:31:51.562Z,71.20
2023-02-15T09:34:59.278Z,65.60
2023-02-15T09:38:06.668Z,73.10
2023-02-15T09:41:14.672Z,64.60
2023-02-15T09:44:22.008Z,66.90
2023-02-15T09:47:29.687Z,69.50
2023-02-15T09:50:37.524Z,73.30
2023-02-15T09:53:44.584Z,67.10
2023-02-15T09:56:52.204Z,54.50
2023-02-15T10:00:00.107Z,52.30
2023-02-15T10:03:07.243Z,58.00
2023-02-15T10:06:15.040Z,53.90
2023-02-15T10:09:22.519Z,57.60
2023-02-15T10:12:29.963Z,47.20
2023-02-15T10:15:37.877Z,51.10
2023-02-15T10:18:45.278Z,51.90
2023-02-15T10:21:52.779Z,46.80
2023-02-15T10:25:00.177Z,40.90
2023-02-15T10:28:08.073Z,38.70
2023-02-15T10:31:15.896Z,49.20
2023-02-15T10:34:23.385Z,51.70
2023-02-15T10:37:31.547Z,48.70
2023-02-15T10:40:38.581Z,43.50
2023-02-15T10:43:46.326Z,39.60
2023-02-15T10:46:54.280Z,38.60
2023-02-15T10:50:01.531Z,36.80
2023-02-15T10:53:09.219Z,35.20
2023-02-15T10:56:16.989Z,31.30
2023-02-15T10:59:24.034Z,29.70
2023-02-15T11:02:32.241Z,29.40
2023-02-15T11:05:39.288Z,27.10
2023-02-15T11:08:46.750Z,30.50
2023-02-15T11:11:54.978Z,30.90
2023-02-15T11:15:02.444Z,27.50
2023-02-15T11:18:10.019Z,29.20
2023-02-15T11:21:17.517Z,28.70
2023-02-15T11:24:25.116Z,26.00
2023-02-15T11:27:32.434Z,21.10
2023-02-15T11:30:40.316Z,23.30
2023-02-15T11:33:48.116Z,19.90
2023-02-15T11:36:55.711Z,21.40
2023-02-15T11:40:03.840Z,19.20
2023-02-15T11:43:11.313Z,17.70
2023-02-15T11:46:18.605Z,16.10
2023-02-15T11:49:26.211Z,13.30
2023-02-15T11:52:33.333Z,12.60
2023-02-15T11:55:41.043Z,13.50
2023-02-15T11:58:48.777Z,12.60
2023-02-15T12:01:55.796Z,11.40
2023-02-15T12:05:03.353Z,9.50
2023-02-15T12:08:10.806Z,9.80
2023-02-15T12:11:18.220Z,10.90
2023-02-15T12:14:26.099Z,9.60
2023-02-15T12:17:33.710Z,8.20
2023-02-15T12:20:41.499Z,9.10
2023-02-15T12:23:49.183Z,9.50
2023-02-15T12:26:56.572Z,8.80
2023-02-15T12:30:04.272Z,10.30
2023-02-15T12:33:11.534Z,8.80
2023-02-15T12:36:19.084Z,9.40
2023-02-15T12:39:26.677Z,10.40
2023-02-15T12:42:34.214Z,9.30
2023-02-15T12:45:42.387Z,8.50
2023-02-15T12:48:49.477Z,9.40
2023-02-15T12:51:57.165Z,9.40
2023-02-15T12:55:04.556Z,9.10
2023-02-15T12:58:11.847Z,10.10
2023-02-15T13:01:20.148Z,10.00
2023-02-15T13:04:27.824Z,10.50
2023-02-15T13:07:35.436Z,12.20
2023-02-15T13:10:43.307Z,11.00
2023-02-15T13:13:50.316Z,10.90
2023-02-15T13:16:58.016Z,12.10
2023-02-15T13:20:05.565Z,10.10
2023-02-15T13:23:13.534Z,10.40
2023-02-15T13:26:20.900Z,12.70
2023-02-15T13:29:28.206Z,13.10
2023-02-15T13:32:35.968Z,12.30
2023-02-15T13:35:43.524Z,12.00
2023-02-15T13:38:50.970Z,12.40
2023-02-15T13:41:59.081Z,11.00
2023-02-15T13:45:06.325Z,12.00
2023-02-15T13:48:14.245Z,12.50
2023-02-15T13:51:21.939Z,11.80
2023-02-15T13:54:29.198Z,11.30
2023-02-15T13:57:36.932Z,12.60
2023-02-15T14:00:44.897Z,12.20
2023-02-15T14:03:52.017Z,11.40
2023-02-15T14:06:59.885Z,11.60
2023-02-15T14:10:07.492Z,12.90
2023-02-15T14:13:14.985Z,13.60
2023-02-15T14:16:22.790Z,11.40
2023-02-15T14:19:30.229Z,12.40
2023-02-15T14:22:37.727Z,13.80
2023-02-15T14:25:45.193Z,13.80
2023-02-15T14:28:53.028Z,12.90
2023-02-15T14:32:00.657Z,14.40
2023-02-15T14:35:07.948Z,13.70
2023-02-15T14:38:18.314Z,14.00
2023-02-15T14:41:25.830Z,15.20
2023-02-15T14:44:33.422Z,15.00
2023-02-15T14:47:41.037Z,13.30
2023-02-15T14:50:48.313Z,14.70
2023-02-15T14:53:56.308Z,14.70
2023-02-15T14:57:04.524Z,13.20
2023-02-15T15:00:11.560Z,13.10
2023-02-15T15:03:19.424Z,12.50
2023-02-15T15:06:27.106Z,13.00
2023-02-15T15:09:34.709Z,14.50
2023-02-15T15:12:42.492Z,14.10
2023-02-15T15:15:49.743Z,12.60
2023-02-15T15:18:57.275Z,14.50
2023-02-15T15:22:05.198Z,12.40
2023-02-15T15:25:12.347Z,13.00
2023-02-15T15:28:20.227Z,12.60
2023-02-15T15:31:27.855Z,12.60
2023-02-15T15:34:35.346Z,12.70
2023-02-15T15:37:42.886Z,11.90
2023-02-15T15:40:50.156Z,13.00
2023-02-15T15:43:58.156Z,12.50
2023-02-15T15:47:05.664Z,12.40
2023-02-15T15:50:13.341Z,13.20
2023-02-15T15:53:21.159Z,13.40
2023-02-15T15:56:28.236Z,13.30
2023-02-15T15:59:35.988Z,13.20
2023-02-15T16:02:43.946Z,13.70
2023-02-15T16:05:51.193Z,12.20
2023-02-15T16:08:58.512Z,11.60
2023-02-15T16:12:06.994Z,11.30
2023-02-15T16:15:14.030Z,11.30
2023-02-15T16:18:21.988Z,10.80
2023-02-15T16:21:29.116Z,20.80
2023-02-15T16:24:36.522Z,17.00
2023-02-15T16:27:44.414Z,30.10
2023-02-15T16:30:44.314Z,18.50
2023-02-15T16:33:51.854Z,15.80
2023-02-15T16:36:59.327Z,23.90
2023-02-15T16:40:07.037Z,19.00
2023-02-15T16:43:14.448Z,16.40
2023-02-15T16:46:22.310Z,20.80
2023-02-15T16:49:29.711Z,19.60
2023-02-15T16:52:37.728Z,19.40
2023-02-15T16:55:45.100Z,16.70
2023-02-15T16:58:52.672Z,40.50
2023-02-15T17:01:59.919Z,113.00
2023-02-15T17:05:07.513Z,145.90
2023-02-15T17:08:14.841Z,115.80
2023-02-15T17:11:21.822Z,46.90
2023-02-15T17:14:29.585Z,36.50
2023-02-15T17:17:36.586Z,32.20
2023-02-15T17:20:44.429Z,34.80
2023-02-15T17:23:51.953Z,28.60
2023-02-15T17:26:58.895Z,27.20
2023-02-15T17:30:06.323Z,24.10
2023-02-15T17:33:14.100Z,24.80
2023-02-15T17:36:21.158Z,25.60
2023-02-15T17:39:28.229Z,25.90
2023-02-15T17:42:35.576Z,26.30
2023-02-15T17:45:44.252Z,31.40
2023-02-15T17:48:51.929Z,40.20
2023-02-15T17:51:59.281Z,46.90
2023-02-15T17:55:06.492Z,36.90
2023-02-15T17:58:13.824Z,33.90
2023-02-15T18:01:21.746Z,33.80
2023-02-15T18:04:28.863Z,45.60
2023-02-15T18:07:35.986Z,44.00
2023-02-15T18:10:43.802Z,29.70
2023-02-15T18:13:50.771Z,32.30
2023-02-15T18:16:58.628Z,34.70
2023-02-15T18:20:06.383Z,34.70
2023-02-15T18:23:13.581Z,35.90
2023-02-15T18:26:21.716Z,35.90
2023-02-15T18:29:29.165Z,35.60
2023-02-15T18:32:36.110Z,41.00
2023-02-15T18:35:43.606Z,35.30
2023-02-15T18:38:51.143Z,40.10
2023-02-15T18:41:58.176Z,38.20
2023-02-15T18:45:06.348Z,38.50
2023-02-15T18:48:14.245Z,37.10
2023-02-15T18:51:21.810Z,38.70
2023-02-15T18:54:29.004Z,39.00
2023-02-15T18:57:36.740Z,37.20
2023-02-15T19:00:43.928Z,40.40
2023-02-15T19:03:51.148Z,39.40
2023-02-15T19:06:58.940Z,42.00
2023-02-15T19:10:06.489Z,40.70
2023-02-15T19:13:13.676Z,40.80
2023-02-15T19:16:21.508Z,42.50
2023-02-15T19:19:28.543Z,49.60
2023-02-15T19:22:36.335Z,55.50
2023-02-15T19:25:44.155Z,53.20
2023-02-15T19:28:51.754Z,53.10
2023-02-15T19:31:59.526Z,53.60
2023-02-15T19:35:06.779Z,52.90
2023-02-15T19:38:13.804Z,47.70
2023-02-15T19:41:21.144Z,50.40
2023-02-15T19:44:28.510Z,53.20
2023-02-15T19:47:35.941Z,51.60
2023-02-15T19:50:43.592Z,54.80
2023-02-15T19:53:51.215Z,53.20
2023-02-15T19:56:58.610Z,58.80
2023-02-15T20:00:20.904Z,56.80
2023-02-15T20:03:11.204Z,59.70
2023-02-15T20:06:18.679Z,58.80
2023-02-15T20:09:26.285Z,62.30
2023-02-15T20:12:33.756Z,57.40
2023-02-15T20:15:40.854Z,60.00
2023-02-15T20:18:48.247Z,57.70
2023-02-15T20:21:56.051Z,56.10
2023-02-15T20:25:03.034Z,59.00
2023-02-15T20:28:10.541Z,53.10
2023-02-15T20:31:18.273Z,50.30
2023-02-15T20:34:25.482Z,48.50
2023-02-15T20:37:34.265Z,44.70
2023-02-15T20:40:41.591Z,54.00
2023-02-15T20:43:48.589Z,45.50
2023-02-15T20:46:56.450Z,45.20
2023-02-15T20:50:03.948Z,47.90
2023-02-15T20:53:11.383Z,49.30
2023-02-15T20:56:19.100Z,52.10
2023-02-15T20:59:26.607Z,50.60
2023-02-15T21:02:33.864Z,50.60
2023-02-15T21:05:41.253Z,46.60
2023-02-15T21:08:48.686Z,48.00
2023-02-15T21:11:55.984Z,50.90
2023-02-15T21:15:03.600Z,53.80
2023-02-15T21:18:13.297Z,50.80
2023-02-15T21:21:20.525Z,50.10
2023-02-15T21:24:27.794Z,47.40
2023-02-15T21:27:35.381Z,49.80
2023-02-15T21:30:42.278Z,42.70
2023-02-15T21:33:50.170Z,48.80
2023-02-15T21:36:57.652Z,42.60
2023-02-15T21:40:04.768Z,45.80
2023-02-15T21:43:11.971Z,44.90
2023-02-15T21:46:19.280Z,41.30
2023-02-15T21:49:26.248Z,38.90
2023-02-15T21:52:33.964Z,39.60
2023-02-15T21:55:41.433Z,38.30
2023-02-15T21:58:48.692Z,40.00
2023-02-15T22:01:56.214Z,39.10
2023-02-15T22:05:03.864Z,35.90
2023-02-15T22:08:11.207Z,36.60
2023-02-15T22:11:18.180Z,43.50
2023-02-15T22:14:25.800Z,46.20
2023-02-15T22:17:33.211Z,40.90
2023-02-15T22:20:40.633Z,37.70
2023-02-15T22:23:48.561Z,38.80
2023-02-15T22:26:55.661Z,37.80
2023-02-15T22:30:03.505Z,37.80
2023-02-15T22:33:11.297Z,36.00
2023-02-15T22:36:18.343Z,39.30
2023-02-15T22:39:26.288Z,38.20
2023-02-15T22:42:34.063Z,37.30
2023-02-15T22:45:41.051Z,43.90
2023-02-15T22:48:48.822Z,46.80
2023-02-15T22:51:56.095Z,49.30
2023-02-15T22:55:03.086Z,53.80
2023-02-15T22:58:10.736Z,51.50
2023-02-15T23:01:18.159Z,58.20
2023-02-15T23:04:25.334Z,59.50
2023-02-15T23:07:32.935Z,55.90
2023-02-15T23:10:39.946Z,51.40
2023-02-15T23:13:47.544Z,50.40
2023-02-15T23:16:54.890Z,48.20
2023-02-15T23:20:02.288Z,49.00
2023-02-15T23:23:09.507Z,39.00
2023-02-15T23:26:16.749Z,42.00
2023-02-15T23:29:24.364Z,39.10
2023-02-15T23:32:31.888Z,37.70
2023-02-15T23:35:39.277Z,42.10
2023-02-15T23:38:46.536Z,41.30
2023-02-15T23:41:54.116Z,42.80
2023-02-15T23:45:01.586Z,43.00
2023-02-15T23:48:08.627Z,47.90
2023-02-15T23:51:16.331Z,45.80
2023-02-15T23:54:23.646Z,39.30
2023-02-15T23:57:31.118Z,41.00
